KDRO/DRO METAR and TAF weather

Enter ICAO airport designator
Station Type Date Time Source
KDRO METAR 2023/01/30 10:53 UTC NOAA

KDRO 301053Z AUTO 02004KT 10SM CLR M13/M16 A2992 RMK AO2 SLP184 T11281156


Station Type Date Time Source
KDRO Decoded METAR 2023/01/30 10:53 UTC NOAA

DURANGO-LA PLATA COUNTY AIRPORT , CO, United States (KDRO) 37-09N 107-46W 2035M
Jan 30, 2023 - 05:53 AM EST / 2023.01.30 1053 UTC
Wind: from the NNE (020 degrees) at 5 MPH (4 KT):0
Visibility: 10 mile(s):0
Sky conditions: clear
Temperature: 9.0 F (-12.8 C)
Windchill: 0 F (-18 C):1
Dew Point: 3.9 F (-15.6 C)
Relative Humidity: 79%
Pressure (altimeter): 29.92 in. Hg (1013 hPa)
ob: KDRO 301053Z AUTO 02004KT 10SM CLR M13/M16 A2992 RMK AO2 SLP184 T11281156
cycle: 11

Station Type Date Time Source
KDRO TAF 2023/01/30 06:22 UTC NOAA

TAF KDRO 300520Z 3006/3106 05008KT P6SM FEW250
FM301200 05005KT P6SM BKN050
FM301800 26007KT P6SM BKN030
FM302300 23007KT P6SM BKN035

Example: see airport list